Time;durP1;ratioP1;P1;durP2;ratioP2;P2;SDS_P1;SDS_P2;PMS_P1;PMS_P2;Temp;Humidity;BMP_temperature;BMP_pressure;BME280_temperature;BME280_humidity;BME280_pressure;Samples;Min_cycle;Max_cycle;Signal;HPM_P1;HPM_P2
2021/12/28 00:02:18;;;;;;;96.00;62.75;;;;;;;6.17;100.00;99882.88;6275596;22;20038;-90
2021/12/28 00:04:43;;;;;;;96.18;61.45;;;;;;;6.21;100.00;99878.97;6272839;22;20008;-89
2021/12/28 00:07:12;;;;;;;93.15;59.35;;;;;;;6.29;100.00;99881.69;6276161;22;20012;-89
2021/12/28 00:09:38;;;;;;;92.03;59.58;;;;;;;6.16;100.00;99874.16;6276651;22;20039;-89
2021/12/28 00:12:16;;;;;;;93.68;60.97;;;;;;;6.19;100.00;99879.13;6191099;23;20060;-90
2021/12/28 00:15:01;;;;;;;91.63;58.22;;;;;;;6.15;100.00;99877.78;6204421;23;20026;-91
2021/12/28 00:20:18;;;;;;;80.43;52.90;;;;;;;6.34;100.00;99887.31;6198132;23;20020;-89
2021/12/28 00:22:44;;;;;;;81.13;55.72;;;;;;;6.33;100.00;99883.03;6198172;23;20020;-93
2021/12/28 00:25:47;;;;;;;77.68;52.42;;;;;;;6.52;100.00;99869.72;6198218;23;20009;-91
2021/12/28 00:28:21;;;;;;;83.65;53.83;;;;;;;6.33;100.00;99872.50;6199731;23;20012;-91
2021/12/28 00:30:48;;;;;;;78.82;53.15;;;;;;;6.46;100.00;99864.25;6230283;23;20013;-92
2021/12/28 00:33:15;;;;;;;78.35;52.88;;;;;;;6.55;100.00;99864.16;6196060;23;20013;-90
2021/12/28 00:35:42;;;;;;;78.30;52.47;;;;;;;6.61;100.00;99873.25;6223383;23;20008;-90
2021/12/28 00:38:18;;;;;;;78.15;53.35;;;;;;;6.47;100.00;99881.66;6169872;23;20023;-89
2021/12/28 00:40:53;;;;;;;82.38;54.40;;;;;;;6.37;100.00;99875.66;6225960;23;20012;-90
2021/12/28 00:43:22;;;;;;;78.93;51.75;;;;;;;6.43;100.00;99881.16;6172224;23;20066;-93
2021/12/28 00:46:11;;;;;;;78.78;53.42;;;;;;;6.31;100.00;99866.56;6224707;23;20004;-90
2021/12/28 00:48:54;;;;;;;78.82;53.97;;;;;;;6.23;100.00;99874.41;6155113;23;20016;-89
2021/12/28 00:51:26;;;;;;;79.70;53.05;;;;;;;6.32;100.00;99886.66;6175519;23;20009;-92
2021/12/28 00:53:56;;;;;;;82.67;55.10;;;;;;;6.19;100.00;99899.34;6174330;23;20024;-91
2021/12/28 00:56:23;;;;;;;82.00;55.50;;;;;;;6.12;100.00;99898.28;6191070;23;20012;-90
2021/12/28 00:58:48;;;;;;;82.30;53.75;;;;;;;6.19;100.00;99904.63;6204255;22;20020;-90
2021/12/28 01:01:17;;;;;;;81.25;55.33;;;;;;;6.12;100.00;99903.56;6197339;23;20078;-90
2021/12/28 01:03:42;;;;;;;83.07;55.35;;;;;;;6.08;100.00;99910.09;6198935;23;20011;-90
2021/12/28 01:06:10;;;;;;;83.47;56.70;;;;;;;6.05;100.00;99897.22;6151558;23;20356;-90
2021/12/28 01:08:44;;;;;;;84.80;56.75;;;;;;;6.10;100.00;99910.75;6156820;23;20029;-91
2021/12/28 01:14:07;;;;;;;82.70;56.10;;;;;;;6.13;100.00;99911.28;6201712;23;20017;-92
2021/12/28 01:16:34;;;;;;;84.35;55.72;;;;;;;6.20;100.00;99911.50;6172443;23;20444;-91
2021/12/28 01:19:08;;;;;;;81.38;53.88;;;;;;;6.23;100.00;99905.97;6171976;23;20391;-92
2021/12/28 01:21:37;;;;;;;;;;;;;;;6.18;100.00;99916.09;6197815;23;20622;-94
2021/12/28 01:24:04;;;;;;;83.60;53.30;;;;;;;6.10;100.00;99911.59;6173029;23;19915;-92
2021/12/28 01:26:49;;;;;;;82.32;53.67;;;;;;;6.11;100.00;99909.78;6171165;23;20013;-92
2021/12/28 01:29:21;;;;;;;85.80;54.08;;;;;;;6.10;100.00;99908.94;6170447;23;20013;-90
2021/12/28 01:31:50;;;;;;;81.65;52.67;;;;;;;6.18;100.00;99902.97;6170314;23;20021;-92
2021/12/28 01:37:19;;;;;;;;;;;;;;;6.10;100.00;99902.84;6249625;22;20019;-90
2021/12/28 01:39:45;;;;;;;84.00;53.50;;;;;;;6.09;100.00;99909.13;6259468;22;19915;-91
2021/12/28 01:42:11;;;;;;;81.10;52.05;;;;;;;6.07;100.00;99913.69;6285759;22;20008;-91
2021/12/28 01:44:37;;;;;;;83.05;55.35;;;;;;;6.18;100.00;99908.22;6280837;22;20007;-90
2021/12/28 01:47:06;;;;;;;83.88;54.92;;;;;;;6.09;100.00;99901.22;6230054;22;20007;-89
2021/12/28 01:49:32;;;;;;;85.63;54.40;;;;;;;6.32;100.00;99896.34;6254115;22;20316;-88
2021/12/28 01:51:58;;;;;;;82.90;52.33;;;;;;;6.33;100.00;99904.09;6226733;22;20022;-87
2021/12/28 01:54:24;;;;;;;78.75;51.67;;;;;;;6.29;100.00;99894.84;6252155;22;20074;-89
2021/12/28 01:56:51;;;;;;;79.43;51.53;;;;;;;6.26;100.00;99887.25;6253588;22;20018;-89
2021/12/28 01:59:22;;;;;;;77.38;49.05;;;;;;;6.13;100.00;99881.53;6281047;22;20008;-90
2021/12/28 02:01:51;;;;;;;76.00;51.00;;;;;;;6.34;100.00;99886.50;6229941;22;20019;-89
2021/12/28 02:04:35;;;;;;;80.25;51.90;;;;;;;6.20;100.00;99887.84;6283120;22;20008;-89
2021/12/28 02:07:02;;;;;;;78.30;50.50;;;;;;;6.17;100.00;99885.50;6280728;22;20089;-89
2021/12/28 02:09:29;;;;;;;76.18;50.15;;;;;;;6.19;100.00;99884.41;6280567;22;20004;-90
2021/12/28 02:11:54;;;;;;;81.72;52.17;;;;;;;6.10;100.00;99879.19;6255993;22;20401;-88
2021/12/28 02:14:25;;;;;;;76.65;51.17;;;;;;;6.12;100.00;99874.63;6265422;22;20008;-89
2021/12/28 02:16:53;;;;;;;79.50;52.85;;;;;;;6.12;100.00;99877.25;6267220;22;20026;-87
2021/12/28 02:19:28;;;;;;;76.78;50.83;;;;;;;6.08;100.00;99873.25;6268717;22;20016;-90
2021/12/28 02:21:54;;;;;;;81.03;50.67;;;;;;;6.08;100.00;99860.09;6276444;22;20007;-90
2021/12/28 02:24:19;;;;;;;80.30;52.35;;;;;;;6.04;100.00;99858.75;6304163;22;20015;-90
2021/12/28 02:26:45;;;;;;;80.60;51.15;;;;;;;6.00;100.00;99852.94;6303989;22;20058;-88
2021/12/28 02:29:13;;;;;;;81.53;52.65;;;;;;;5.96;100.00;99856.88;6296040;22;20007;-91
2021/12/28 02:31:42;;;;;;;84.60;53.10;;;;;;;5.98;100.00;99851.44;6260912;22;20085;-91
2021/12/28 02:34:11;;;;;;;84.20;53.22;;;;;;;5.99;100.00;99845.22;6262772;22;20016;-91
2021/12/28 02:36:37;;;;;;;85.50;53.58;;;;;;;6.00;100.00;99836.38;6287364;22;20071;-88
2021/12/28 02:39:03;;;;;;;81.15;51.55;;;;;;;5.99;100.00;99829.44;6259982;22;20069;-90
2021/12/28 02:41:29;;;;;;;84.90;52.95;;;;;;;6.03;100.00;99833.44;6261191;22;20043;-90
2021/12/28 02:44:00;;;;;;;85.85;53.80;;;;;;;6.03;100.00;99825.53;6284732;22;20035;-92
2021/12/28 02:46:27;;;;;;;79.57;50.87;;;;;;;5.91;100.00;99816.19;6284505;22;20007;-90
2021/12/28 02:48:52;;;;;;;80.85;51.50;;;;;;;6.05;100.00;99802.53;6284167;22;20012;-90
2021/12/28 02:51:21;;;;;;;79.75;50.80;;;;;;;6.26;100.00;99810.97;6282448;22;20026;-91
2021/12/28 02:53:47;;;;;;;81.25;49.83;;;;;;;6.31;100.00;99807.84;6256435;22;20006;-90
2021/12/28 02:56:15;;;;;;;79.28;48.58;;;;;;;6.19;100.00;99802.00;6254474;22;20062;-91
2021/12/28 02:58:44;;;;;;;71.60;47.30;;;;;;;6.46;100.00;99791.38;6255188;22;20011;-92
2021/12/28 03:01:13;;;;;;;73.05;46.60;;;;;;;6.53;100.00;99792.38;6255809;22;20004;-93
2021/12/28 03:03:40;;;;;;;80.20;47.90;;;;;;;6.40;100.00;99802.50;6230811;22;20015;-90
2021/12/28 03:06:08;;;;;;;78.35;48.17;;;;;;;6.54;100.00;99794.06;6232834;22;20015;-93
2021/12/28 03:08:37;;;;;;;80.90;50.13;;;;;;;6.37;100.00;99787.00;6258113;22;20054;-89
2021/12/28 03:11:05;;;;;;;82.57;50.38;;;;;;;6.39;100.00;99790.34;6288941;22;20012;-89
2021/12/28 03:13:44;;;;;;;81.57;50.50;;;;;;;6.33;100.00;99784.84;6262161;22;20034;-90
2021/12/28 03:16:10;;;;;;;82.45;49.28;;;;;;;6.38;100.00;99779.94;6291642;22;20022;-94
2021/12/28 03:18:36;;;;;;;86.15;51.67;;;;;;;6.37;100.00;99783.56;6283785;22;19999;-91
2021/12/28 03:21:05;;;;;;;84.32;51.40;;;;;;;6.50;100.00;99786.59;6258695;22;20038;-90
2021/12/28 03:23:31;;;;;;;82.50;51.10;;;;;;;6.62;100.00;99790.66;6285622;22;20083;-89
2021/12/28 03:25:57;;;;;;;83.10;50.85;;;;;;;6.58;100.00;99784.88;6283463;22;20015;-90
2021/12/28 03:28:29;;;;;;;85.72;52.75;;;;;;;6.62;100.00;99785.38;6280817;22;20016;-89
2021/12/28 03:31:03;;;;;;;93.25;53.97;;;;;;;6.53;100.00;99792.38;6253851;22;20042;-89
2021/12/28 03:33:32;;;;;;;94.38;53.75;;;;;;;6.34;100.00;99805.75;6282999;22;20079;-91
2021/12/28 03:35:58;;;;;;;100.15;55.97;;;;;;;6.22;100.00;99809.59;6255787;22;20088;-91
2021/12/28 03:38:24;;;;;;;100.35;57.90;;;;;;;6.19;100.00;99815.16;6231091;22;20003;-91
2021/12/28 03:40:53;;;;;;;101.25;57.15;;;;;;;6.37;100.00;99823.84;6285292;22;20063;-91
2021/12/28 03:43:20;;;;;;;103.50;58.38;;;;;;;6.19;100.00;99825.69;6286323;22;20162;-91
2021/12/28 03:45:46;;;;;;;107.57;60.00;;;;;;;6.10;100.00;99832.66;6286766;22;20010;-90
2021/12/28 03:48:12;;;;;;;117.03;62.38;;;;;;;6.05;100.00;99839.38;6259051;22;20105;-91
2021/12/28 03:50:38;;;;;;;113.57;61.50;;;;;;;6.08;100.00;99844.31;6285359;22;20007;-89
2021/12/28 03:53:05;;;;;;;113.40;61.55;;;;;;;6.23;100.00;99843.63;6257394;22;20018;-90
2021/12/28 03:55:31;;;;;;;113.68;61.13;;;;;;;6.11;100.00;99833.50;6286078;22;20011;-91
2021/12/28 03:57:59;;;;;;;120.20;63.28;;;;;;;6.06;100.00;99826.06;6284964;22;20398;-90
2021/12/28 04:00:27;;;;;;;115.70;61.72;;;;;;;6.17;100.00;99822.38;6285170;22;20011;-89
2021/12/28 04:02:53;;;;;;;125.15;64.90;;;;;;;6.02;100.00;99835.25;6283642;22;20054;-89
2021/12/28 04:05:19;;;;;;;125.18;65.50;;;;;;;6.09;100.00;99835.47;6285369;22;20008;-90
2021/12/28 04:07:45;;;;;;;123.88;65.65;;;;;;;6.03;100.00;99831.59;6285104;22;20035;-89
2021/12/28 04:10:12;;;;;;;128.20;65.70;;;;;;;6.04;100.00;99833.28;6281568;22;20012;-91
2021/12/28 04:12:40;;;;;;;130.90;67.28;;;;;;;6.02;100.00;99834.41;6281750;22;20043;-89
2021/12/28 04:15:08;;;;;;;140.68;70.45;;;;;;;6.16;100.00;99820.72;6254903;22;20022;-92
2021/12/28 04:17:37;;;;;;;129.68;65.07;;;;;;;6.38;100.00;99815.00;6281990;22;20083;-88
2021/12/28 04:20:17;;;;;;;127.40;63.58;;;;;;;6.31;100.00;99807.84;6283265;22;20010;-89
2021/12/28 04:22:47;;;;;;;121.25;62.03;;;;;;;6.31;100.00;99824.47;6286099;22;20063;-89
2021/12/28 04:25:15;;;;;;;126.75;62.35;;;;;;;6.42;100.00;99836.56;6287886;22;20019;-89
2021/12/28 04:27:44;;;;;;;127.45;62.85;;;;;;;6.35;100.00;99841.63;6235916;22;20020;-91
2021/12/28 04:30:12;;;;;;;122.80;61.60;;;;;;;6.30;100.00;99825.44;6238649;22;20008;-88
2021/12/28 04:32:38;;;;;;;124.15;62.15;;;;;;;6.43;100.00;99817.19;6289095;22;20022;-89
2021/12/28 04:35:19;;;;;;;119.80;60.78;;;;;;;6.42;100.00;99826.88;6246523;23;20048;-87
2021/12/28 04:37:45;;;;;;;99.97;46.63;;;;;;;6.29;100.00;99829.06;6227115;23;20452;-91
2021/12/28 04:40:12;;;;;;;123.13;62.80;;;;;;;6.40;100.00;99838.50;6195729;23;20012;-89
2021/12/28 04:42:40;;;;;;;128.23;60.72;;;;;;;6.38;100.00;99833.41;6223653;23;20012;-91
2021/12/28 04:45:08;;;;;;;126.68;61.70;;;;;;;6.58;100.00;99837.53;6209309;23;20077;-90
2021/12/28 04:47:34;;;;;;;114.28;57.63;;;;;;;6.55;100.00;99837.84;6210013;23;20040;-88
2021/12/28 04:49:59;;;;;;;131.07;64.35;;;;;;;6.44;100.00;99840.69;6184685;23;20008;-90
2021/12/28 04:52:25;;;;;;;127.20;62.63;;;;;;;6.60;100.00;99850.50;6236891;23;20003;-89
2021/12/28 04:54:51;;;;;;;124.43;61.85;;;;;;;6.67;100.00;99855.03;6209584;23;20015;-90
2021/12/28 04:57:17;;;;;;;112.03;57.33;;;;;;;6.87;100.00;99846.94;6210386;23;20047;-91
2021/12/28 04:59:42;;;;;;;110.60;55.90;;;;;;;7.01;100.00;99843.72;6236848;23;20405;-91
2021/12/28 05:02:08;;;;;;;108.70;54.70;;;;;;;7.09;100.00;99830.63;6211008;23;20012;-90
2021/12/28 05:04:34;;;;;;;108.35;54.78;;;;;;;6.86;100.00;99840.81;6210570;23;20072;-91
2021/12/28 05:06:59;;;;;;;113.10;56.78;;;;;;;6.90;100.00;99831.63;6229868;23;20023;-88
2021/12/28 05:09:25;;;;;;;108.88;55.67;;;;;;;6.74;100.00;99821.84;6225297;23;20032;-88
2021/12/28 05:11:50;;;;;;;111.78;55.92;;;;;;;6.79;100.00;99823.19;6223089;23;20032;-91
2021/12/28 05:14:18;;;;;;;112.70;56.05;;;;;;;6.77;100.00;99833.88;6194924;23;20035;-89
2021/12/28 05:16:47;;;;;;;111.82;57.30;;;;;;;6.59;100.00;99820.75;6194973;23;20027;-91
2021/12/28 05:19:14;;;;;;;116.95;57.85;;;;;;;6.57;100.00;99830.59;6198054;23;20011;-93
2021/12/28 05:21:40;;;;;;;110.72;56.10;;;;;;;6.78;100.00;99837.31;6224560;23;20012;-90
2021/12/28 05:24:06;;;;;;;115.22;56.42;;;;;;;6.80;100.00;99816.91;6224527;23;20016;-90
2021/12/28 05:26:32;;;;;;;112.45;56.30;;;;;;;6.90;100.00;99825.53;6222962;23;20012;-92
2021/12/28 05:28:58;;;;;;;107.43;55.15;;;;;;;7.13;100.00;99831.94;6198339;23;20012;-89
2021/12/28 05:31:27;;;;;;;104.05;53.90;;;;;;;7.06;100.00;99826.47;6225297;23;20001;-93
2021/12/28 05:33:59;;;;;;;106.43;53.63;;;;;;;6.87;100.00;99824.06;6174853;23;20446;-88
2021/12/28 05:36:25;;;;;;;110.35;54.13;;;;;;;6.83;100.00;99835.06;6199410;23;20024;-90
2021/12/28 05:38:54;;;;;;;111.60;53.20;;;;;;;6.73;100.00;99832.50;6225679;23;20079;-89
2021/12/28 05:41:21;;;;;;;104.22;52.72;;;;;;;6.54;100.00;99836.16;6175423;23;20016;-89
2021/12/28 05:43:46;;;;;;;112.18;55.53;;;;;;;6.46;100.00;99825.59;6227863;23;20001;-90
2021/12/28 05:46:12;;;;;;;114.95;56.35;;;;;;;6.38;100.00;99822.88;6232297;23;20015;-88
2021/12/28 05:48:41;;;;;;;107.25;54.35;;;;;;;6.24;100.00;99812.91;6178056;23;20098;-90
2021/12/28 05:51:10;;;;;;;106.53;54.43;;;;;;;6.31;100.00;99818.38;6199868;23;20013;-90
2021/12/28 05:53:36;;;;;;;119.90;57.25;;;;;;;6.26;100.00;99810.13;6228660;23;20012;-89
2021/12/28 05:56:05;;;;;;;107.43;54.30;;;;;;;6.23;100.00;99806.00;6200236;23;20012;-90
2021/12/28 05:58:31;;;;;;;112.70;57.25;;;;;;;6.36;100.00;99806.44;6172976;23;20064;-90
2021/12/28 06:00:57;;;;;;;116.05;56.50;;;;;;;6.28;100.00;99803.72;6197192;23;20024;-89
2021/12/28 06:03:23;;;;;;;116.95;55.13;;;;;;;6.25;100.00;99801.41;6225322;23;20009;-90
2021/12/28 06:05:48;;;;;;;110.38;54.45;;;;;;;6.37;100.00;99802.81;6225435;23;20016;-91
2021/12/28 06:08:17;;;;;;;111.32;55.80;;;;;;;6.23;100.00;99801.53;6197576;23;20053;-89
2021/12/28 06:10:43;;;;;;;118.97;58.92;;;;;;;6.22;100.00;99809.59;6225970;23;20008;-89
2021/12/28 06:13:08;;;;;;;112.28;55.95;;;;;;;6.54;100.00;99825.66;6198553;23;20009;-90
2021/12/28 06:15:34;;;;;;;105.30;54.17;;;;;;;6.62;100.00;99817.81;6173628;23;20009;-89
2021/12/28 06:18:00;;;;;;;109.63;55.10;;;;;;;6.51;100.00;99825.13;6200209;23;21200;-91
2021/12/28 06:20:25;;;;;;;110.47;53.92;;;;;;;6.41;100.00;99835.75;6176024;23;20025;-90
2021/12/28 06:22:54;;;;;;;116.28;55.75;;;;;;;6.32;100.00;99835.81;6193606;23;20012;-93
2021/12/28 06:25:19;;;;;;;108.45;53.92;;;;;;;6.20;100.00;99838.69;6221425;23;20009;-90
2021/12/28 06:27:45;;;;;;;120.43;56.45;;;;;;;6.21;100.00;99844.78;6220895;23;20079;-90
2021/12/28 06:30:11;;;;;;;113.10;56.13;;;;;;;6.41;100.00;99843.63;6220123;23;20029;-89
2021/12/28 06:32:36;;;;;;;111.07;56.20;;;;;;;6.38;100.00;99843.94;6193790;23;20028;-89
2021/12/28 06:35:03;;;;;;;110.95;56.55;;;;;;;6.36;100.00;99853.81;6220629;23;20436;-90
2021/12/28 06:37:35;;;;;;;118.10;57.13;;;;;;;6.35;100.00;99849.50;6196404;23;20017;-90
2021/12/28 06:40:01;;;;;;;109.43;55.20;;;;;;;6.34;100.00;99850.47;6223590;23;20020;-92
2021/12/28 06:42:27;;;;;;;107.70;56.08;;;;;;;6.36;100.00;99847.72;6194378;23;20095;-89
2021/12/28 06:44:53;;;;;;;105.70;53.85;;;;;;;6.35;100.00;99854.78;6196666;23;20020;-92
2021/12/28 06:47:19;;;;;;;108.68;55.08;;;;;;;6.29;100.00;99855.38;6224540;23;20088;-94
2021/12/28 06:49:49;;;;;;;113.22;55.40;;;;;;;6.23;100.00;99856.78;6228747;23;20005;-90
2021/12/28 06:52:17;;;;;;;112.20;55.63;;;;;;;6.26;100.00;99863.59;6202114;23;20100;-90
2021/12/28 06:54:45;;;;;;;110.55;53.83;;;;;;;6.20;100.00;99861.53;6230197;23;20005;-89
2021/12/28 06:57:14;;;;;;;110.57;55.30;;;;;;;6.24;100.00;99855.81;6198167;23;20008;-91
2021/12/28 06:59:46;;;;;;;121.55;56.10;;;;;;;6.25;100.00;99846.13;6199513;23;20391;-93
2021/12/28 07:04:52;;;;;;;112.43;55.97;;;;;;;6.34;100.00;99855.75;6201130;23;20012;-92
2021/12/28 07:07:19;;;;;;;117.88;56.78;;;;;;;6.51;100.00;99870.69;6173033;23;20065;-90
2021/12/28 07:09:45;;;;;;;119.88;56.45;;;;;;;6.38;100.00;99877.31;6169426;23;20005;-92
2021/12/28 07:12:13;;;;;;;125.05;57.38;;;;;;;6.26;100.00;99876.75;6123563;23;20069;-93
2021/12/28 07:14:38;;;;;;;122.72;58.35;;;;;;;6.20;100.00;99875.50;6168796;23;20347;-92
2021/12/28 07:17:04;;;;;;;129.10;59.22;;;;;;;6.09;100.00;99872.28;6167202;23;20017;-92
2021/12/28 07:19:31;;;;;;;131.13;61.35;;;;;;;6.15;100.00;99877.78;6143260;23;20017;-91
2021/12/28 07:21:59;;;;;;;126.82;59.83;;;;;;;6.16;100.00;99870.72;6193000;23;20072;-89
2021/12/28 07:24:25;;;;;;;136.50;61.83;;;;;;;6.18;100.00;99860.88;6195645;23;20439;-91
2021/12/28 07:26:50;;;;;;;129.48;60.20;;;;;;;6.13;100.00;99857.88;6173710;23;20016;-91
2021/12/28 07:29:16;;;;;;;125.20;57.88;;;;;;;6.12;100.00;99858.84;6170527;23;20013;-93
2021/12/28 07:31:45;;;;;;;133.75;61.20;;;;;;;6.08;100.00;99865.38;6170278;23;20005;-92
2021/12/28 07:34:11;;;;;;;143.50;62.22;;;;;;;6.12;100.00;99883.34;6166211;23;20013;-90
2021/12/28 07:36:37;;;;;;;136.38;59.05;;;;;;;6.11;100.00;99894.00;6165489;23;20009;-88
2021/12/28 07:39:05;;;;;;;138.65;61.13;;;;;;;6.06;100.00;99888.38;6174103;23;20023;-89
2021/12/28 07:41:35;;;;;;;135.45;59.92;;;;;;;5.99;100.00;99879.41;6162867;23;20036;-90
2021/12/28 07:44:01;;;;;;;137.57;61.80;;;;;;;6.00;100.00;99886.34;6163906;23;20088;-87
2021/12/28 07:46:27;;;;;;;138.50;60.47;;;;;;;5.96;100.00;99882.34;6191268;23;20031;-87
2021/12/28 07:48:53;;;;;;;141.85;60.78;;;;;;;6.06;100.00;99889.22;6163350;23;20013;-91
2021/12/28 07:51:18;;;;;;;138.82;62.90;;;;;;;6.14;100.00;99888.44;6190131;23;20013;-89
2021/12/28 07:53:44;;;;;;;127.70;60.20;;;;;;;6.21;100.00;99884.25;6189762;23;20009;-90
2021/12/28 07:56:10;;;;;;;124.65;58.88;;;;;;;6.22;100.00;99904.31;6189410;23;20055;-92
2021/12/28 07:58:36;;;;;;;130.05;60.78;;;;;;;6.22;100.00;99901.69;6163012;23;20009;-89
2021/12/28 08:01:09;;;;;;;124.97;59.08;;;;;;;6.29;100.00;99910.66;6191055;23;20009;-89
2021/12/28 08:03:35;;;;;;;121.82;57.72;;;;;;;6.51;100.00;99899.66;6161687;23;20013;-88
2021/12/28 08:06:03;;;;;;;126.63;59.90;;;;;;;6.44;100.00;99895.97;6163284;23;20024;-90
2021/12/28 08:08:29;;;;;;;126.93;59.90;;;;;;;6.47;100.00;99889.56;6162540;23;20009;-89
2021/12/28 08:10:55;;;;;;;124.18;58.85;;;;;;;6.52;100.00;99906.59;6162557;23;20032;-90
2021/12/28 08:13:22;;;;;;;126.40;58.53;;;;;;;6.58;100.00;99927.03;6162046;23;20005;-90
2021/12/28 08:15:47;;;;;;;123.90;59.33;;;;;;;6.65;100.00;99922.81;6139646;23;20492;-90
2021/12/28 08:18:13;;;;;;;126.00;58.75;;;;;;;6.62;100.00;99917.88;6164230;23;20023;-88
2021/12/28 08:20:39;;;;;;;118.13;57.47;;;;;;;6.47;100.00;99908.81;6191336;23;20132;-88
2021/12/28 08:23:06;;;;;;;118.18;58.25;;;;;;;6.71;100.00;99905.59;6190281;23;20084;-88
2021/12/28 08:25:36;;;;;;;127.47;61.28;;;;;;;6.33;100.00;99898.81;6171034;23;20031;-88
2021/12/28 08:28:10;;;;;;;140.25;66.13;;;;;;;6.11;100.00;99901.88;6191092;23;20063;-88
2021/12/28 08:30:36;;;;;;;134.48;60.97;;;;;;;6.06;100.00;99898.91;6161715;23;20005;-86
2021/12/28 08:33:05;;;;;;;137.88;62.22;;;;;;;6.25;100.00;99896.13;6189212;23;20083;-86
2021/12/28 08:35:32;;;;;;;139.45;63.78;;;;;;;6.08;100.00;99887.25;6187359;23;20409;-84
2021/12/28 08:37:58;;;;;;;157.25;69.50;;;;;;;6.09;100.00;99888.06;6189374;23;20017;-85
2021/12/28 08:40:24;;;;;;;139.05;64.68;;;;;;;6.18;100.00;99897.69;6197032;23;20391;-86
2021/12/28 08:42:50;;;;;;;135.70;62.00;;;;;;;6.18;100.00;99913.47;6199191;23;20445;-84
2021/12/28 08:45:16;;;;;;;131.57;63.03;;;;;;;6.28;100.00;99914.25;6205599;23;20020;-85
2021/12/28 08:47:42;;;;;;;126.65;58.13;;;;;;;6.42;100.00;99921.63;6205476;23;20004;-84
2021/12/28 08:50:09;;;;;;;118.57;56.33;;;;;;;6.47;100.00;99900.94;6206296;23;20072;-84
2021/12/28 08:52:36;;;;;;;122.28;57.65;;;;;;;6.40;100.00;99915.66;6174804;23;20009;-85
2021/12/28 08:55:03;;;;;;;119.47;59.42;;;;;;;6.40;100.00;99923.56;6165214;23;20432;-88
2021/12/28 08:57:28;;;;;;;134.57;63.38;;;;;;;6.35;100.00;99931.09;6189160;23;20023;-83
2021/12/28 08:59:54;;;;;;;124.72;59.33;;;;;;;6.33;100.00;99935.66;6191956;23;20013;-82
2021/12/28 09:02:20;;;;;;;122.65;61.63;;;;;;;6.35;100.00;99931.09;6171522;23;20009;-83
2021/12/28 09:04:46;;;;;;;124.60;60.17;;;;;;;6.44;100.00;99937.25;6186729;23;20024;-88
2021/12/28 09:07:18;;;;;;;125.85;61.10;;;;;;;6.46;100.00;99925.63;6189150;23;20451;-87
2021/12/28 09:09:45;;;;;;;113.35;56.25;;;;;;;6.73;100.00;99920.25;6190572;23;20470;-90
2021/12/28 09:12:11;;;;;;;111.13;54.90;;;;;;;6.68;100.00;99911.97;6188266;23;20009;-84
2021/12/28 09:14:39;;;;;;;116.65;59.80;;;;;;;6.71;100.00;99916.09;6187664;23;20007;-85
2021/12/28 09:17:05;;;;;;;111.75;56.65;;;;;;;6.68;100.00;99914.63;6160169;23;20012;-85
2021/12/28 09:19:31;;;;;;;103.38;53.88;;;;;;;6.67;100.00;99910.31;6188679;23;20015;-90
2021/12/28 09:21:58;;;;;;;103.60;52.50;;;;;;;6.59;100.00;99897.09;6188344;23;20040;-88
2021/12/28 09:24:23;;;;;;;94.45;50.97;;;;;;;6.66;100.00;99882.31;6162303;23;20009;-92
2021/12/28 09:26:49;;;;;;;87.80;48.50;;;;;;;6.91;100.00;99885.16;6187551;23;20012;-83
2021/12/28 09:29:15;;;;;;;96.25;50.08;;;;;;;7.02;100.00;99893.66;6188187;23;20016;-86
2021/12/28 09:31:40;;;;;;;89.50;48.38;;;;;;;7.05;100.00;99908.31;6161932;23;20024;-87
2021/12/28 09:34:06;;;;;;;87.18;46.60;;;;;;;7.25;100.00;99888.66;6187871;23;20306;-89
2021/12/28 09:36:32;;;;;;;84.95;47.25;;;;;;;7.32;100.00;99870.41;6189628;23;20008;-88
2021/12/28 09:38:58;;;;;;;77.88;44.22;;;;;;;7.19;100.00;99873.50;6189277;23;20044;-89
2021/12/28 09:41:23;;;;;;;82.50;43.33;;;;;;;7.23;100.00;99875.63;6190229;23;20539;-88
2021/12/28 09:43:49;;;;;;;79.07;43.33;;;;;;;7.11;100.00;99869.00;6191369;23;20035;-92
2021/12/28 09:46:16;;;;;;;79.22;45.15;;;;;;;7.05;100.00;99868.78;6149223;23;20009;-92
2021/12/28 09:48:48;;;;;;;82.60;47.15;;;;;;;7.12;100.00;99873.28;6177391;23;20077;-91
2021/12/28 09:51:16;;;;;;;83.35;47.95;;;;;;;7.07;100.00;99878.19;6202907;23;20456;-91
2021/12/28 09:53:47;;;;;;;80.10;43.75;;;;;;;7.16;100.00;99881.69;6203365;23;20064;-90
2021/12/28 09:56:14;;;;;;;85.07;45.30;;;;;;;7.43;100.00;99873.59;6154222;23;20065;-91
2021/12/28 09:58:41;;;;;;;80.03;44.33;;;;;;;7.40;100.00;99876.56;6203302;23;20016;-89
2021/12/28 10:01:08;;;;;;;76.80;44.20;;;;;;;7.45;100.00;99891.91;6202198;23;20029;-89
2021/12/28 10:03:35;;;;;;;85.65;46.90;;;;;;;7.40;100.00;99892.38;6150123;23;20384;-90
2021/12/28 10:06:25;;;;;;;80.45;46.13;;;;;;;7.33;100.00;99901.06;6177304;23;20021;-90
2021/12/28 10:09:10;;;;;;;73.00;41.95;;;;;;;7.30;100.00;99894.28;6231674;22;20021;-89
2021/12/28 10:11:53;;;;;;;74.45;41.90;;;;;;;7.44;100.00;99883.16;6245300;23;20000;-88
2021/12/28 10:14:40;;;;;;;71.13;40.97;;;;;;;7.41;100.00;99883.47;6268296;22;20012;-90
2021/12/28 10:17:07;;;;;;;70.85;40.80;;;;;;;7.47;100.00;99880.22;6258717;22;20463;-89
2021/12/28 10:19:45;;;;;;;67.65;39.33;;;;;;;7.55;100.00;99868.88;6220026;22;20011;-90
2021/12/28 10:22:43;;;;;;;72.07;39.83;;;;;;;7.85;100.00;99862.22;6244478;22;20038;-91
2021/12/28 10:25:28;;;;;;;62.33;37.53;;;;;;;7.79;100.00;99861.88;6297795;22;20008;-92
2021/12/28 10:28:15;;;;;;;64.78;37.85;;;;;;;7.90;100.00;99879.22;6249899;22;20020;-89
2021/12/28 10:31:06;;;;;;;65.78;37.30;;;;;;;7.80;100.00;99884.63;6230603;23;20068;-88
2021/12/28 10:33:43;;;;;;;60.53;36.25;;;;;;;7.76;100.00;99883.28;6186067;23;20016;-88
2021/12/28 10:36:37;;;;;;;64.75;36.55;;;;;;;7.78;100.00;99867.31;6180256;23;20013;-89
2021/12/28 10:39:06;;;;;;;58.35;35.35;;;;;;;7.82;100.00;99861.53;6186036;23;20021;-90
2021/12/28 10:41:36;;;;;;;58.47;36.20;;;;;;;7.87;100.00;99862.88;6170272;23;20056;-90
2021/12/28 10:44:05;;;;;;;61.30;37.28;;;;;;;7.90;100.00;99862.56;6177676;23;20089;-92
2021/12/28 10:46:30;;;;;;;62.25;37.45;;;;;;;8.08;100.00;99881.75;6148012;23;20033;-89
2021/12/28 10:49:01;;;;;;;55.25;32.95;;;;;;;7.97;100.00;99884.69;6162905;23;20013;-90
2021/12/28 10:51:38;;;;;;;58.75;35.28;;;;;;;8.01;100.00;99881.56;6165884;23;20456;-88
2021/12/28 10:56:59;;;;;;;60.30;35.97;;;;;;;7.99;100.00;99880.88;6161633;23;20024;-89
2021/12/28 10:59:31;;;;;;;61.33;36.22;;;;;;;7.90;100.00;99888.94;6159212;23;20006;-85
2021/12/28 11:01:56;;;;;;;62.55;37.78;;;;;;;7.89;100.00;99876.75;6158525;23;20014;-89
2021/12/28 11:04:34;;;;;;;67.85;37.55;;;;;;;7.91;100.00;99895.88;6162695;23;20020;-92
2021/12/28 11:07:11;;;;;;;69.85;38.80;;;;;;;7.84;100.00;99894.84;6157283;23;20080;-88
2021/12/28 11:09:49;;;;;;;68.25;38.72;;;;;;;7.82;100.00;99890.56;6184392;23;20460;-83
2021/12/28 11:12:43;;;;;;;70.35;38.80;;;;;;;7.98;100.00;99888.97;6165099;23;20018;-92
2021/12/28 11:15:11;;;;;;;77.80;42.33;;;;;;;7.81;100.00;99888.09;6191694;23;20045;-89
2021/12/28 11:17:37;;;;;;;78.53;42.53;;;;;;;7.82;100.00;99879.22;6161572;23;20020;-84
2021/12/28 11:20:03;;;;;;;85.15;43.38;;;;;;;7.89;100.00;99868.84;6157299;23;20017;-85
2021/12/28 11:22:29;;;;;;;83.38;44.97;;;;;;;7.85;100.00;99864.88;6155013;23;20001;-86
2021/12/28 11:24:55;;;;;;;92.57;47.58;;;;;;;7.79;100.00;99855.75;6155497;23;20437;-84
2021/12/28 11:27:27;;;;;;;95.88;49.15;;;;;;;7.78;100.00;99860.25;6178844;23;20263;-86
2021/12/28 11:29:53;;;;;;;101.50;50.45;;;;;;;7.70;100.00;99860.19;6153714;23;20010;-90
2021/12/28 11:32:20;;;;;;;99.72;49.55;;;;;;;7.82;100.00;99851.00;6180955;23;20089;-85
2021/12/28 11:34:46;;;;;;;106.80;50.33;;;;;;;7.76;100.00;99846.38;6158320;23;20495;-87
2021/12/28 11:37:20;;;;;;;109.30;53.70;;;;;;;7.79;100.00;99839.94;6157132;23;20371;-89